Time;durP1;ratioP1;P1;durP2;ratioP2;P2;SDS_P1;SDS_P2;PMS_P1;PMS_P2;Temp;Humidity;BMP_temperature;BMP_pressure;BME280_temperature;BME280_humidity;BME280_pressure;Samples;Min_cycle;Max_cycle;Signal;HPM_P1;HPM_P2
2023/12/01 00:00:31;;;;;;;13.15;9.35;;;-4.40;99.90;;;;;;5011917;28;20042;-85
2023/12/01 00:02:57;;;;;;;16.70;9.77;;;-4.50;99.90;;;;;;5014425;28;20029;-85
2023/12/01 00:05:23;;;;;;;14.00;9.90;;;-4.60;99.90;;;;;;5023706;28;20053;-87
2023/12/01 00:07:48;;;;;;;14.15;9.57;;;-4.70;99.90;;;;;;5024399;28;20486;-86
2023/12/01 00:10:14;;;;;;;16.05;10.23;;;-4.70;99.90;;;;;;5014686;28;20021;-84
2023/12/01 00:12:40;;;;;;;15.80;10.15;;;-4.80;99.90;;;;;;5013811;28;20040;-85
2023/12/01 00:15:06;;;;;;;17.02;9.90;;;-4.80;99.90;;;;;;5012487;28;20026;-85
2023/12/01 00:17:32;;;;;;;14.55;8.93;;;-4.80;99.90;;;;;;5032975;28;20045;-84
2023/12/01 00:19:58;;;;;;;14.88;9.65;;;-4.80;99.90;;;;;;5011234;28;20147;-85
2023/12/01 00:22:24;;;;;;;14.18;9.63;;;-4.80;99.90;;;;;;5010863;28;20088;-87
2023/12/01 00:24:49;;;;;;;15.65;9.45;;;-4.70;99.90;;;;;;5030285;28;20029;-84
2023/12/01 00:27:15;;;;;;;15.18;10.50;;;-4.70;99.90;;;;;;5026207;28;20566;-85
2023/12/01 00:29:41;;;;;;;15.70;9.35;;;-4.70;99.90;;;;;;5011651;28;20026;-83
2023/12/01 00:32:07;;;;;;;15.10;9.80;;;-4.70;99.90;;;;;;5015028;28;20029;-84
2023/12/01 00:34:32;;;;;;;18.58;11.15;;;-4.80;99.90;;;;;;5011189;28;20030;-84
2023/12/01 00:36:58;;;;;;;15.85;9.45;;;-4.80;99.90;;;;;;4988496;28;20033;-84
2023/12/01 00:39:23;;;;;;;15.40;9.65;;;-4.90;99.90;;;;;;5029012;28;20029;-84
2023/12/01 00:41:49;;;;;;;14.77;9.35;;;-4.90;99.90;;;;;;5028353;28;20022;-86
2023/12/01 00:44:14;;;;;;;14.50;9.50;;;-4.90;99.90;;;;;;5021945;28;20022;-85
2023/12/01 00:46:40;;;;;;;13.82;9.30;;;-4.90;99.90;;;;;;5031261;28;20105;-85
2023/12/01 00:49:06;;;;;;;16.27;10.10;;;-5.00;99.90;;;;;;5009604;28;20098;-83
2023/12/01 00:51:31;;;;;;;19.20;10.23;;;-5.00;99.90;;;;;;5008708;28;20057;-85
2023/12/01 00:53:57;;;;;;;18.13;9.63;;;-5.00;99.90;;;;;;5010499;28;20017;-85
2023/12/01 00:56:22;;;;;;;19.50;9.65;;;-5.00;99.90;;;;;;5010230;28;20038;-84
2023/12/01 00:58:48;;;;;;;14.45;9.85;;;-5.00;99.90;;;;;;5011167;28;20037;-84
2023/12/01 01:01:14;;;;;;;15.65;9.35;;;-5.10;99.90;;;;;;5012840;28;20030;-85
2023/12/01 01:03:39;;;;;;;13.75;10.45;;;-5.10;99.90;;;;;;5026512;28;20018;-84
2023/12/01 01:06:05;;;;;;;17.40;9.45;;;-5.00;99.90;;;;;;5015267;28;20037;-84
2023/12/01 01:08:31;;;;;;;12.95;7.97;;;-5.00;99.90;;;;;;5007742;28;20053;-85
2023/12/01 01:10:57;;;;;;;12.88;8.52;;;-5.10;99.90;;;;;;5026604;28;20057;-86
2023/12/01 01:13:25;;;;;;;11.23;8.10;;;-5.10;99.90;;;;;;5012428;28;20477;-83
2023/12/01 01:15:50;;;;;;;15.10;9.32;;;-5.10;99.90;;;;;;5024627;28;20029;-84
2023/12/01 01:18:16;;;;;;;15.10;9.07;;;-5.10;99.90;;;;;;5026260;28;20409;-85
2023/12/01 01:20:41;;;;;;;14.07;9.70;;;-5.10;99.90;;;;;;5004028;28;20084;-83
2023/12/01 01:23:07;;;;;;;12.07;8.35;;;-5.10;99.90;;;;;;5011558;28;20071;-85
2023/12/01 01:25:32;;;;;;;15.07;10.05;;;-5.10;99.90;;;;;;5011855;28;20021;-84
2023/12/01 01:27:58;;;;;;;12.32;8.82;;;-5.10;99.90;;;;;;5007650;28;20022;-85
2023/12/01 01:30:23;;;;;;;13.05;8.93;;;-5.10;99.90;;;;;;5014913;28;20029;-83
2023/12/01 01:32:49;;;;;;;16.02;9.40;;;-5.10;99.90;;;;;;5005015;28;20022;-85
2023/12/01 01:35:15;;;;;;;16.08;9.52;;;-5.20;99.90;;;;;;5006503;28;20025;-86
2023/12/01 01:37:41;;;;;;;16.20;9.25;;;-5.20;99.90;;;;;;5008006;28;20030;-86
2023/12/01 01:40:09;;;;;;;14.48;9.25;;;-5.30;99.90;;;;;;5029932;28;20037;-84
2023/12/01 01:42:35;;;;;;;17.42;9.93;;;-5.30;99.90;;;;;;5012041;28;20599;-83
2023/12/01 01:45:00;;;;;;;17.25;9.13;;;-5.40;99.90;;;;;;5010593;28;20017;-85
2023/12/01 01:47:26;;;;;;;12.45;8.73;;;-5.40;99.90;;;;;;5012636;28;20096;-84
2023/12/01 01:49:52;;;;;;;14.25;8.88;;;-5.40;99.90;;;;;;5013757;28;20520;-84
2023/12/01 01:52:18;;;;;;;18.25;9.52;;;-5.40;99.90;;;;;;5008327;28;20025;-84
2023/12/01 01:54:44;;;;;;;14.65;9.55;;;-5.50;99.90;;;;;;5011615;28;20022;-85
2023/12/01 01:57:10;;;;;;;15.82;8.60;;;-5.50;99.90;;;;;;5011378;28;20026;-84
2023/12/01 01:59:36;;;;;;;14.52;9.80;;;-5.60;99.90;;;;;;5028755;28;20312;-85
2023/12/01 02:02:01;;;;;;;17.33;10.13;;;-5.60;99.90;;;;;;5007565;28;20033;-84
2023/12/01 02:04:27;;;;;;;14.55;9.50;;;-5.60;99.90;;;;;;5023703;28;20040;-84
2023/12/01 02:06:53;;;;;;;14.02;9.30;;;-5.60;99.90;;;;;;5005042;28;20030;-83
2023/12/01 02:09:18;;;;;;;13.50;9.70;;;-5.70;99.90;;;;;;5028668;28;20030;-85
2023/12/01 02:11:44;;;;;;;13.13;8.52;;;-5.70;99.90;;;;;;5010453;28;20049;-83
2023/12/01 02:14:10;;;;;;;12.15;8.10;;;-5.70;99.90;;;;;;5013206;28;20025;-84
2023/12/01 02:16:36;;;;;;;12.27;8.88;;;-5.70;99.90;;;;;;5030653;28;20052;-84
2023/12/01 02:19:02;;;;;;;14.68;8.80;;;-5.60;99.90;;;;;;5020506;28;20040;-84
2023/12/01 02:21:28;;;;;;;13.00;8.23;;;-5.60;99.90;;;;;;5011951;28;20446;-83
2023/12/01 02:23:54;;;;;;;13.48;8.70;;;-5.50;99.90;;;;;;5021166;28;20029;-84
2023/12/01 02:26:21;;;;;;;13.60;8.73;;;-5.50;99.90;;;;;;5021147;28;20029;-84
2023/12/01 02:28:47;;;;;;;14.27;9.48;;;-5.40;99.90;;;;;;5017511;28;20026;-84
2023/12/01 02:31:12;;;;;;;16.75;10.30;;;-5.40;99.90;;;;;;5016027;28;20025;-84
2023/12/01 02:33:38;;;;;;;14.85;10.13;;;-5.40;99.90;;;;;;5013845;28;20026;-84
2023/12/01 02:36:06;;;;;;;21.52;10.15;;;-5.50;99.90;;;;;;5030598;28;20092;-85
2023/12/01 02:38:32;;;;;;;12.25;8.02;;;-5.50;99.90;;;;;;5029232;28;20025;-85
2023/12/01 02:40:58;;;;;;;12.02;7.53;;;-5.50;99.90;;;;;;5012348;28;20141;-84
2023/12/01 02:43:23;;;;;;;14.88;9.25;;;-5.40;99.90;;;;;;5015630;28;20046;-84
2023/12/01 02:45:49;;;;;;;14.60;9.77;;;-5.30;99.90;;;;;;5017061;28;20026;-85
2023/12/01 02:48:16;;;;;;;17.52;10.45;;;-5.30;99.90;;;;;;5014491;28;20025;-84
2023/12/01 02:50:42;;;;;;;17.15;10.27;;;-5.20;99.90;;;;;;5022154;28;20124;-84
2023/12/01 02:53:08;;;;;;;17.60;10.15;;;-5.10;99.90;;;;;;5009413;28;20139;-85
2023/12/01 02:55:33;;;;;;;17.70;10.73;;;-5.10;99.90;;;;;;5029704;28;20136;-84
2023/12/01 02:57:59;;;;;;;16.33;10.25;;;-5.10;99.90;;;;;;5012922;28;20037;-84
2023/12/01 03:00:25;;;;;;;13.73;9.63;;;-5.00;99.90;;;;;;5029228;28;20048;-86
2023/12/01 03:02:52;;;;;;;16.52;11.00;;;-5.00;99.90;;;;;;5024769;28;20037;-84
2023/12/01 03:05:18;;;;;;;16.08;10.10;;;-5.00;99.90;;;;;;5009886;28;20030;-84
2023/12/01 03:07:44;;;;;;;17.38;10.38;;;-5.00;99.90;;;;;;5017313;28;20099;-83
2023/12/01 03:10:10;;;;;;;16.70;11.02;;;-4.90;99.90;;;;;;5033213;28;20029;-84
2023/12/01 03:12:41;;;;;;;16.58;10.30;;;-4.90;99.90;;;;;;5009358;28;20036;-84
2023/12/01 03:15:18;;;;;;;18.35;10.55;;;-4.90;99.90;;;;;;5011948;28;20040;-85
2023/12/01 03:17:43;;;;;;;17.88;10.63;;;-4.90;99.90;;;;;;5008937;28;20026;-85
2023/12/01 03:20:14;;;;;;;18.95;10.35;;;-4.80;99.90;;;;;;5011964;28;20302;-84
2023/12/01 03:22:41;;;;;;;17.88;10.90;;;-4.80;99.90;;;;;;5012125;28;20087;-84
2023/12/01 03:25:09;;;;;;;17.83;11.20;;;-4.80;99.90;;;;;;5028238;28;20029;-84
2023/12/01 03:27:39;;;;;;;15.48;9.70;;;-4.80;99.90;;;;;;5026188;28;20033;-83
2023/12/01 03:30:16;;;;;;;18.58;11.13;;;-4.80;99.90;;;;;;5008007;28;20025;-84
2023/12/01 03:32:45;;;;;;;16.60;11.23;;;-4.80;99.90;;;;;;5010694;28;20498;-85
2023/12/01 03:35:16;;;;;;;18.98;11.07;;;-4.80;99.90;;;;;;5029238;28;20085;-85
2023/12/01 03:37:43;;;;;;;17.13;10.43;;;-4.80;99.90;;;;;;5022587;28;20052;-85
2023/12/01 03:40:12;;;;;;;17.88;10.75;;;-4.70;99.90;;;;;;5012499;28;20044;-85
2023/12/01 03:42:44;;;;;;;19.60;11.80;;;-4.70;99.90;;;;;;5024401;28;20026;-86
2023/12/01 03:45:11;;;;;;;15.68;10.18;;;-4.70;99.90;;;;;;5027897;28;20052;-85
2023/12/01 03:47:41;;;;;;;19.00;11.07;;;-4.70;99.90;;;;;;5027012;28;20072;-84
2023/12/01 03:50:11;;;;;;;21.60;11.00;;;-4.80;99.90;;;;;;5024620;28;20090;-84
2023/12/01 03:52:41;;;;;;;18.95;10.52;;;-4.80;99.90;;;;;;5008119;28;20462;-86
2023/12/01 03:55:07;;;;;;;17.75;10.07;;;-4.80;99.90;;;;;;5026363;28;20037;-84
2023/12/01 03:57:33;;;;;;;17.50;10.52;;;-4.80;99.90;;;;;;5007341;28;20029;-83
2023/12/01 03:59:59;;;;;;;17.02;10.13;;;-4.80;99.90;;;;;;5007477;28;20030;-84
2023/12/01 04:02:24;;;;;;;21.35;11.00;;;-4.80;99.90;;;;;;5010295;28;20065;-84
2023/12/01 04:04:50;;;;;;;17.02;10.23;;;-4.80;99.90;;;;;;5012008;28;20040;-84
2023/12/01 04:07:16;;;;;;;23.05;11.63;;;-4.80;99.90;;;;;;5010158;28;20161;-85
2023/12/01 04:09:43;;;;;;;19.05;11.13;;;-4.80;99.90;;;;;;5010880;28;20042;-83
2023/12/01 04:12:08;;;;;;;21.13;11.55;;;-4.80;99.90;;;;;;5010027;28;20109;-84
2023/12/01 04:14:34;;;;;;;20.80;11.55;;;-4.80;99.90;;;;;;5030669;28;20448;-84
2023/12/01 04:17:08;;;;;;;19.10;11.07;;;-4.80;99.90;;;;;;5012586;28;20060;-84
2023/12/01 04:19:35;;;;;;;19.65;11.70;;;-4.80;99.90;;;;;;5006596;28;20034;-84
2023/12/01 04:22:02;;;;;;;19.50;10.95;;;-4.80;99.90;;;;;;5008699;28;20029;-84
2023/12/01 04:24:28;;;;;;;18.45;11.52;;;-4.80;99.90;;;;;;5026956;28;20453;-85
2023/12/01 04:26:54;;;;;;;19.42;12.27;;;-4.70;99.90;;;;;;5029138;28;20045;-85
2023/12/01 04:29:19;;;;;;;19.50;11.77;;;-4.80;99.90;;;;;;5008645;28;20022;-84
2023/12/01 04:31:45;;;;;;;20.33;11.63;;;-4.80;99.90;;;;;;5012043;28;20033;-85
2023/12/01 04:34:10;;;;;;;17.02;10.43;;;-4.80;99.90;;;;;;5022208;28;20037;-84
2023/12/01 04:36:36;;;;;;;19.23;11.60;;;-4.80;99.90;;;;;;5003678;28;20033;-85
2023/12/01 04:39:03;;;;;;;21.27;11.65;;;-4.80;99.90;;;;;;5013684;28;20033;-86
2023/12/01 04:41:29;;;;;;;17.85;10.60;;;-4.80;99.90;;;;;;5026988;28;20124;-84
2023/12/01 04:43:54;;;;;;;18.02;10.57;;;-4.90;99.90;;;;;;5013789;28;20112;-84
2023/12/01 04:46:20;;;;;;;17.70;11.15;;;-4.90;99.90;;;;;;5005187;28;20488;-84
2023/12/01 04:48:45;;;;;;;21.80;11.68;;;-4.90;99.90;;;;;;5008306;28;20029;-85
2023/12/01 04:51:11;;;;;;;18.10;11.25;;;-4.90;99.90;;;;;;5012154;28;20032;-85
2023/12/01 04:53:36;;;;;;;16.38;10.93;;;-4.90;99.90;;;;;;5007942;28;20025;-85
2023/12/01 04:56:02;;;;;;;17.85;10.55;;;-4.90;99.90;;;;;;5004425;28;20061;-85
2023/12/01 04:58:28;;;;;;;23.48;12.50;;;-4.90;99.90;;;;;;5006621;28;20037;-85
2023/12/01 05:00:53;;;;;;;21.13;11.88;;;-4.90;99.90;;;;;;5019314;28;20049;-88
2023/12/01 05:03:19;;;;;;;21.88;11.63;;;-4.90;99.90;;;;;;5024639;28;20385;-85
2023/12/01 05:05:44;;;;;;;20.02;10.68;;;-4.90;99.90;;;;;;5006327;28;20045;-85
2023/12/01 05:08:11;;;;;;;19.48;11.48;;;-4.90;99.90;;;;;;5013050;28;20029;-84
2023/12/01 05:10:38;;;;;;;21.27;11.20;;;-4.90;99.90;;;;;;5010396;28;20026;-85
2023/12/01 05:13:05;;;;;;;17.40;10.30;;;-5.00;99.90;;;;;;5011633;28;21251;-84
2023/12/01 05:15:33;;;;;;;20.45;10.65;;;-5.00;99.90;;;;;;5011837;28;20030;-85
2023/12/01 05:18:01;;;;;;;21.10;11.35;;;-5.00;99.90;;;;;;5027597;28;20447;-85
2023/12/01 05:20:28;;;;;;;19.17;11.30;;;-5.00;99.90;;;;;;5009941;28;20091;-84
2023/12/01 05:22:55;;;;;;;24.70;11.50;;;-4.90;99.90;;;;;;5022289;28;20072;-86
2023/12/01 05:25:22;;;;;;;21.30;12.48;;;-4.90;99.90;;;;;;5009429;28;20631;-84
2023/12/01 05:27:52;;;;;;;23.80;13.30;;;-4.80;99.90;;;;;;5027165;28;20034;-86
2023/12/01 05:30:26;;;;;;;22.70;13.48;;;-4.80;99.90;;;;;;5022373;28;20029;-84
2023/12/01 05:32:53;;;;;;;23.40;13.30;;;-4.80;99.90;;;;;;5009261;28;20521;-84
2023/12/01 05:35:19;;;;;;;19.23;12.05;;;-4.90;99.90;;;;;;5010547;28;20037;-84
2023/12/01 05:37:50;;;;;;;20.55;11.50;;;-4.90;99.90;;;;;;5010063;28;20128;-84
2023/12/01 05:40:36;;;;;;;20.75;11.65;;;-5.00;99.90;;;;;;5005811;28;20026;-85
2023/12/01 05:43:03;;;;;;;23.08;11.73;;;-5.00;99.90;;;;;;5011187;28;20038;-84
2023/12/01 05:45:32;;;;;;;21.95;12.00;;;-5.00;99.90;;;;;;5027901;28;20636;-84
2023/12/01 05:47:58;;;;;;;20.70;12.15;;;-5.10;99.90;;;;;;5011221;28;20025;-84
2023/12/01 05:50:26;;;;;;;22.30;12.00;;;-5.20;99.90;;;;;;5010381;28;20048;-84
2023/12/01 05:52:56;;;;;;;18.42;11.35;;;-5.20;99.90;;;;;;5011852;28;20022;-84
2023/12/01 05:55:27;;;;;;;19.55;11.23;;;-5.20;99.90;;;;;;5028782;28;20013;-85
2023/12/01 05:57:54;;;;;;;22.42;12.32;;;-5.30;99.90;;;;;;5045369;28;20037;-87
2023/12/01 06:00:22;;;;;;;24.10;12.10;;;-5.30;99.90;;;;;;5023713;28;20061;-84
2023/12/01 06:02:50;;;;;;;24.30;13.40;;;-5.40;99.90;;;;;;5028798;28;20033;-87
2023/12/01 06:05:17;;;;;;;21.38;11.38;;;-5.40;99.90;;;;;;5046061;28;20105;-86
2023/12/01 06:07:44;;;;;;;18.10;11.85;;;-5.50;99.90;;;;;;5032944;28;20033;-84
2023/12/01 06:10:13;;;;;;;21.50;11.52;;;-5.50;99.90;;;;;;5015184;28;20030;-84
2023/12/01 06:12:39;;;;;;;23.80;12.98;;;-5.50;99.90;;;;;;5034716;28;20111;-85
2023/12/01 06:15:10;;;;;;;24.30;11.20;;;-5.60;99.90;;;;;;5010316;28;20022;-83
2023/12/01 06:17:50;;;;;;;25.92;12.90;;;-5.60;99.90;;;;;;5015808;28;20037;-84
2023/12/01 06:20:18;;;;;;;24.25;12.50;;;-5.60;99.90;;;;;;5033676;28;20113;-86
2023/12/01 06:22:50;;;;;;;22.02;13.18;;;-5.60;99.90;;;;;;5010753;28;20401;-83
2023/12/01 06:25:19;;;;;;;24.05;13.15;;;-5.60;99.90;;;;;;5014180;28;20017;-85
2023/12/01 06:27:45;;;;;;;23.17;12.38;;;-5.60;99.90;;;;;;5033122;28;20049;-85
2023/12/01 06:30:12;;;;;;;22.17;11.07;;;-5.60;99.90;;;;;;5027043;28;20026;-86
2023/12/01 06:32:45;;;;;;;21.58;12.23;;;-5.60;99.90;;;;;;5013028;28;20060;-84
2023/12/01 06:35:13;;;;;;;27.48;13.95;;;-5.60;99.90;;;;;;5026038;28;20029;-84
2023/12/01 06:37:39;;;;;;;23.20;12.60;;;-5.60;99.90;;;;;;5010772;28;20065;-83
2023/12/01 06:40:13;;;;;;;19.90;12.30;;;-5.60;99.90;;;;;;5009288;28;20532;-85
2023/12/01 06:42:49;;;;;;;22.65;12.45;;;-5.60;99.90;;;;;;5033425;28;20087;-84
2023/12/01 06:45:16;;;;;;;22.90;13.00;;;-5.60;99.90;;;;;;5014130;28;20021;-84
2023/12/01 06:47:51;;;;;;;24.98;13.25;;;-5.70;99.90;;;;;;5013690;28;20021;-88
2023/12/01 06:50:18;;;;;;;24.98;13.15;;;-5.70;99.90;;;;;;5015251;28;20034;-84
2023/12/01 06:52:46;;;;;;;27.60;14.70;;;-5.80;99.90;;;;;;5012828;28;20076;-84
2023/12/01 06:55:12;;;;;;;21.67;12.82;;;-5.80;99.90;;;;;;5027568;28;20021;-84
2023/12/01 06:57:42;;;;;;;26.58;13.95;;;-5.80;99.90;;;;;;5029544;28;20030;-85
2023/12/01 07:02:56;;;;;;;24.13;13.13;;;-5.80;99.90;;;;;;5017351;28;20033;-85
2023/12/01 07:05:25;;;;;;;23.42;13.07;;;-5.80;99.90;;;;;;5014135;28;20044;-85
2023/12/01 07:07:52;;;;;;;21.85;13.25;;;-5.80;99.90;;;;;;5009422;28;20120;-85
2023/12/01 07:10:17;;;;;;;22.08;12.20;;;-5.80;99.90;;;;;;5014253;28;20607;-84
2023/12/01 07:12:43;;;;;;;23.35;12.50;;;-5.80;99.90;;;;;;5013504;28;20021;-85
2023/12/01 07:15:11;;;;;;;23.92;11.98;;;-5.70;99.90;;;;;;5006377;28;20040;-86
2023/12/01 07:17:38;;;;;;;23.45;12.25;;;-5.70;99.90;;;;;;5007673;28;20029;-85
2023/12/01 07:20:13;;;;;;;26.95;13.95;;;-5.60;99.90;;;;;;5029007;28;20030;-85
2023/12/01 07:22:40;;;;;;;25.27;12.75;;;-5.60;99.90;;;;;;5024572;28;20037;-86
2023/12/01 07:25:10;;;;;;;30.77;15.35;;;-5.50;99.90;;;;;;5007892;28;20047;-86
2023/12/01 07:27:39;;;;;;;29.30;13.73;;;-5.50;99.90;;;;;;5011258;28;20064;-86
2023/12/01 07:30:06;;;;;;;26.10;15.05;;;-5.50;99.90;;;;;;5007515;28;20512;-86
2023/12/01 07:32:32;;;;;;;29.92;15.82;;;-5.50;99.90;;;;;;5020608;28;20168;-85
2023/12/01 07:34:58;;;;;;;28.33;14.80;;;-5.50;99.90;;;;;;5023360;28;20041;-86
2023/12/01 07:37:23;;;;;;;21.65;13.05;;;-5.60;99.90;;;;;;5024509;28;20044;-86
2023/12/01 07:39:49;;;;;;;25.10;13.18;;;-5.60;99.90;;;;;;5029501;28;20437;-86
2023/12/01 07:42:15;;;;;;;26.20;14.32;;;-5.60;99.90;;;;;;5031484;28;20042;-85
2023/12/01 07:44:41;;;;;;;28.00;14.50;;;-5.60;99.90;;;;;;5028220;28;20029;-84
2023/12/01 07:47:08;;;;;;;28.10;14.63;;;-5.60;99.90;;;;;;5010964;28;20589;-84
2023/12/01 07:49:35;;;;;;;25.90;13.63;;;-5.60;99.90;;;;;;5005178;28;20066;-84
2023/12/01 07:52:06;;;;;;;28.10;13.88;;;-5.50;99.90;;;;;;5009468;28;20038;-83
2023/12/01 07:54:35;;;;;;;27.08;14.40;;;-5.50;99.90;;;;;;5011694;28;20140;-85
2023/12/01 07:57:01;;;;;;;26.63;13.40;;;-5.50;99.90;;;;;;5012419;28;20045;-85
2023/12/01 07:59:27;;;;;;;29.35;14.90;;;-5.50;99.90;;;;;;5009806;28;20044;-84
2023/12/01 08:01:53;;;;;;;27.35;14.93;;;-5.50;99.90;;;;;;5024153;28;20171;-85
2023/12/01 08:04:19;;;;;;;28.98;14.60;;;-5.50;99.90;;;;;;5005929;28;20116;-88
2023/12/01 08:06:45;;;;;;;25.30;15.13;;;-5.50;99.90;;;;;;5014389;28;20037;-86
2023/12/01 08:09:16;;;;;;;29.48;14.43;;;-5.50;99.90;;;;;;5011315;28;20369;-86
2023/12/01 08:11:45;;;;;;;29.15;13.82;;;-5.40;99.90;;;;;;5012624;28;20542;-85
2023/12/01 08:14:10;;;;;;;20.52;12.63;;;-5.40;99.90;;;;;;5021256;28;20034;-83
2023/12/01 08:16:36;;;;;;;26.33;14.52;;;-5.40;99.90;;;;;;5007338;28;20306;-84
2023/12/01 08:19:03;;;;;;;26.08;14.57;;;-5.40;99.90;;;;;;5023587;28;20385;-86
2023/12/01 08:21:28;;;;;;;27.70;14.75;;;-5.40;99.90;;;;;;5026079;28;20025;-85
2023/12/01 08:23:54;;;;;;;30.23;14.65;;;-5.40;99.90;;;;;;5009531;28;20022;-85
2023/12/01 08:26:23;;;;;;;25.20;14.60;;;-5.40;99.90;;;;;;5031978;28;20029;-84
2023/12/01 08:28:48;;;;;;;25.65;13.43;;;-5.40;99.90;;;;;;5014760;28;20569;-85
2023/12/01 08:31:14;;;;;;;27.73;14.65;;;-5.40;99.90;;;;;;5008302;28;20057;-86
2023/12/01 08:33:39;;;;;;;25.85;14.07;;;-5.30;99.90;;;;;;5006778;28;20510;-85
2023/12/01 08:36:05;;;;;;;25.75;14.38;;;-5.30;99.90;;;;;;4970733;28;20021;-85
2023/12/01 08:38:31;;;;;;;23.38;13.60;;;-5.20;99.90;;;;;;5020819;28;20028;-85
2023/12/01 08:40:56;;;;;;;24.83;12.82;;;-5.20;99.90;;;;;;5010498;28;20042;-88
2023/12/01 08:43:22;;;;;;;24.42;13.25;;;-5.20;99.90;;;;;;5008251;28;20036;-85
2023/12/01 08:45:47;;;;;;;24.27;12.95;;;-5.20;99.90;;;;;;5009810;28;20037;-85
2023/12/01 08:48:13;;;;;;;21.08;12.70;;;-5.20;99.90;;;;;;5019488;28;20032;-86
2023/12/01 08:50:38;;;;;;;25.80;14.52;;;-5.10;99.90;;;;;;5007194;28;20041;-85
2023/12/01 08:53:05;;;;;;;27.67;13.70;;;-5.10;99.90;;;;;;5021648;28;20030;-85
2023/12/01 08:55:30;;;;;;;25.80;12.85;;;-5.10;99.90;;;;;;5026018;28;20036;-85
2023/12/01 08:57:56;;;;;;;22.48;12.50;;;-5.00;99.90;;;;;;5005847;28;20025;-84
2023/12/01 09:00:22;;;;;;;24.02;14.77;;;-5.00;99.90;;;;;;5004397;28;20029;-84
2023/12/01 09:02:49;;;;;;;35.55;17.95;;;-5.00;99.90;;;;;;5026372;28;20061;-85
2023/12/01 09:05:15;;;;;;;30.52;18.92;;;-5.00;99.90;;;;;;5021078;28;20022;-86
2023/12/01 09:07:40;;;;;;;29.40;14.77;;;-4.90;99.90;;;;;;5022858;28;20047;-85
2023/12/01 09:10:06;;;;;;;26.40;14.40;;;-4.90;99.90;;;;;;5011000;28;20022;-85
2023/12/01 09:12:31;;;;;;;25.50;14.15;;;-4.90;99.90;;;;;;5009086;28;20656;-85
2023/12/01 09:14:57;;;;;;;25.13;13.65;;;-4.90;99.90;;;;;;5006630;28;20041;-85
2023/12/01 09:17:22;;;;;;;21.30;12.98;;;-4.90;99.90;;;;;;5009795;28;20029;-86
2023/12/01 09:19:48;;;;;;;25.58;14.98;;;-4.80;99.90;;;;;;5007201;28;20089;-85
2023/12/01 09:22:14;;;;;;;25.17;15.43;;;-4.70;99.90;;;;;;5003295;28;20112;-85
2023/12/01 09:24:39;;;;;;;28.90;15.95;;;-4.70;99.90;;;;;;5006589;28;20022;-85
2023/12/01 09:27:05;;;;;;;22.63;12.55;;;-4.50;99.90;;;;;;5027590;28;20126;-85
2023/12/01 09:29:30;;;;;;;28.02;14.68;;;-4.50;99.90;;;;;;5017524;28;20128;-85
2023/12/01 09:31:56;;;;;;;27.17;15.30;;;-4.40;99.90;;;;;;5006448;28;20094;-85
2023/12/01 09:34:21;;;;;;;24.77;14.05;;;-4.30;99.90;;;;;;5011327;28;20383;-85
2023/12/01 09:36:47;;;;;;;26.15;13.45;;;-4.20;99.90;;;;;;5004868;28;20477;-86
2023/12/01 09:39:13;;;;;;;25.15;13.45;;;-4.20;99.90;;;;;;5006651;28;20036;-85
2023/12/01 09:41:39;;;;;;;27.25;14.68;;;-4.10;99.90;;;;;;5006963;28;20378;-85
2023/12/01 09:44:07;;;;;;;20.77;13.93;;;-4.00;99.90;;;;;;5007589;28;20485;-84
2023/12/01 09:46:35;;;;;;;24.55;12.63;;;-4.00;99.90;;;;;;5025913;28;20041;-85
2023/12/01 09:49:05;;;;;;;27.50;16.08;;;-3.90;99.90;;;;;;5010868;28;20117;-84
2023/12/01 09:51:34;;;;;;;24.83;13.48;;;-3.80;99.90;;;;;;5022581;28;20044;-85
2023/12/01 09:54:00;;;;;;;25.55;13.70;;;-3.80;99.90;;;;;;5011282;28;20200;-85
2023/12/01 09:56:26;;;;;;;25.98;14.07;;;-3.70;99.90;;;;;;5008197;28;20029;-84
2023/12/01 09:58:52;;;;;;;24.73;13.75;;;-3.70;99.90;;;;;;5003017;28;20525;-85
2023/12/01 10:01:19;;;;;;;23.75;12.55;;;-3.60;99.90;;;;;;5006662;28;20035;-85
2023/12/01 10:03:44;;;;;;;21.50;11.90;;;-3.50;99.90;;;;;;5005641;28;20775;-85
2023/12/01 10:06:10;;;;;;;20.25;12.13;;;-3.50;99.90;;;;;;5008199;28;20121;-84
2023/12/01 10:08:36;;;;;;;17.38;11.35;;;-3.50;99.90;;;;;;5005801;28;20038;-85
2023/12/01 10:11:21;;;;;;;22.02;11.80;;;-3.40;99.90;;;;;;5007684;28;20233;-84
2023/12/01 10:13:49;;;;;;;22.02;12.23;;;-3.40;99.90;;;;;;5006602;28;20299;-84
2023/12/01 10:16:15;;;;;;;21.02;11.95;;;-3.40;99.90;;;;;;5009925;28;20053;-85
2023/12/01 10:18:55;;;;;;;23.58;13.48;;;-3.30;99.90;;;;;;5005660;28;20146;-85
2023/12/01 10:21:21;;;;;;;21.23;11.63;;;-3.20;99.90;;;;;;5017587;28;20113;-85
2023/12/01 10:23:46;;;;;;;18.00;11.50;;;-3.20;99.90;;;;;;5022307;28;20116;-85
2023/12/01 10:26:13;;;;;;;20.58;12.75;;;-3.10;99.90;;;;;;5003489;28;20025;-85
2023/12/01 10:28:40;;;;;;;21.35;11.70;;;-3.10;99.90;;;;;;5005625;28;20533;-85
2023/12/01 10:31:06;;;;;;;21.52;11.27;;;-3.00;99.90;;;;;;5006056;28;20156;-85
2023/12/01 10:34:07;;;;;;;17.85;11.88;;;-3.00;99.90;;;;;;5007153;28;20047;-86
2023/12/01 10:37:06;;;;;;;22.65;11.52;;;-2.90;99.90;;;;;;5003540;28;20037;-86
2023/12/01 10:40:01;;;;;;;19.75;11.20;;;-2.80;99.90;;;;;;5005511;28;20039;-86
2023/12/01 10:42:29;;;;;;;17.63;10.13;;;-2.80;99.90;;;;;;5011164;28;20041;-84
2023/12/01 10:44:59;;;;;;;20.33;11.13;;;-2.70;99.90;;;;;;5012598;28;20090;-85
2023/12/01 10:47:25;;;;;;;19.70;11.35;;;-2.70;99.90;;;;;;5006862;28;20037;-85
2023/12/01 10:49:54;;;;;;;18.00;10.80;;;-2.60;99.90;;;;;;5005945;28;20474;-86
2023/12/01 10:52:20;;;;;;;18.10;11.27;;;-2.60;99.90;;;;;;5009492;28;20379;-84
2023/12/01 10:54:47;;;;;;;18.27;10.50;;;-2.60;99.90;;;;;;5008208;28;20101;-84
2023/12/01 10:57:29;;;;;;;22.95;11.55;;;-2.50;99.90;;;;;;5021653;28;20033;-85
2023/12/01 10:59:59;;;;;;;14.95;10.45;;;-2.40;99.90;;;;;;5011173;28;20021;-86
2023/12/01 11:02:25;;;;;;;19.45;11.93;;;-2.30;99.90;;;;;;5006976;28;20498;-85
2023/12/01 11:04:51;;;;;;;19.00;10.93;;;-2.20;99.90;;;;;;5002860;28;20612;-85
2023/12/01 11:07:38;;;;;;;16.95;10.43;;;-2.10;99.90;;;;;;5005356;28;20044;-85
2023/12/01 11:10:30;;;;;;;19.67;11.23;;;-2.00;99.90;;;;;;5003463;28;20026;-84
2023/12/01 11:13:26;;;;;;;15.45;9.50;;;-2.00;99.90;;;;;;5025677;28;20041;-85
2023/12/01 11:15:53;;;;;;;15.77;9.98;;;-1.90;99.90;;;;;;5009956;28;20053;-85
2023/12/01 11:18:19;;;;;;;15.60;9.55;;;-1.80;99.90;;;;;;5011561;28;20245;-85
2023/12/01 11:20:46;;;;;;;17.48;10.00;;;-1.80;99.90;;;;;;5012825;28;20381;-85
2023/12/01 11:23:12;;;;;;;15.98;9.85;;;-1.70;99.90;;;;;;5021358;28;20021;-86
2023/12/01 11:25:48;;;;;;;15.13;9.50;;;-1.60;99.90;;;;;;5006206;28;20603;-85
2023/12/01 11:33:46;;;;;;;12.25;8.80;;;-1.30;99.90;;;;;;5024913;28;20018;-85
2023/12/01 11:36:27;;;;;;;13.82;8.93;;;-1.30;99.90;;;;;;5006243;28;20132;-85
2023/12/01 11:39:11;;;;;;;14.45;9.65;;;-1.20;99.90;;;;;;5006596;28;20488;-84
2023/12/01 11:41:46;;;;;;;11.45;7.57;;;-1.20;99.90;;;;;;5004279;28;20034;-84
2023/12/01 11:44:26;;;;;;;14.70;7.20;;;-1.10;99.90;;;;;;5019844;28;20534;-84
2023/12/01 11:46:57;;;;;;;9.60;6.28;;;-1.10;99.90;;;;;;5002722;28;20040;-86
2023/12/01 11:49:26;;;;;;;9.68;7.13;;;-1.20;99.90;;;;;;5004426;28;20028;-85
2023/12/01 11:51:53;;;;;;;14.45;7.95;;;-1.20;99.90;;;;;;5014694;28;20576;-86
2023/12/01 11:54:19;;;;;;;12.40;7.18;;;-1.20;99.90;;;;;;5004058;28;20117;-85
2023/12/01 11:56:50;;;;;;;12.52;8.13;;;-1.20;99.90;;;;;;5011984;28;20427;-84
2023/12/01 11:59:16;;;;;;;11.77;8.07;;;-1.20;99.90;;;;;;5008784;28;20054;-85
2023/12/01 12:01:42;;;;;;;16.95;9.32;;;-1.20;99.90;;;;;;5003676;28;20072;-85
2023/12/01 12:04:09;;;;;;;18.40;9.55;;;-1.20;99.90;;;;;;5002054;28;20120;-84
2023/12/01 12:06:35;;;;;;;17.35;9.13;;;-1.20;99.90;;;;;;5008585;28;20022;-84
2023/12/01 12:09:06;;;;;;;14.10;8.27;;;-1.10;99.90;;;;;;5009311;28;20410;-85
2023/12/01 12:11:33;;;;;;;14.75;9.63;;;-1.10;99.90;;;;;;5002038;28;20034;-86
2023/12/01 12:13:59;;;;;;;14.10;8.57;;;-1.10;99.90;;;;;;5007511;28;20025;-85
2023/12/01 12:16:24;;;;;;;14.30;9.07;;;-1.10;99.90;;;;;;5005497;28;20525;-84
2023/12/01 12:18:50;;;;;;;13.43;7.82;;;-1.10;99.90;;;;;;5004681;28;20029;-84
2023/12/01 12:21:16;;;;;;;14.40;8.80;;;-1.00;99.90;;;;;;5007950;28;20401;-87
2023/12/01 12:23:42;;;;;;;12.65;8.13;;;-1.00;99.90;;;;;;5006446;28;20049;-85
2023/12/01 12:26:18;;;;;;;13.57;7.82;;;-1.00;99.90;;;;;;5007406;28;20033;-85
2023/12/01 12:28:49;;;;;;;;;;;-1.00;99.90;;;;;;5010586;28;20478;-85
2023/12/01 12:31:15;;;;;;;15.32;8.35;;;-1.00;99.90;;;;;;5009392;28;19918;-84
2023/12/01 12:33:41;;;;;;;14.82;9.18;;;-1.10;99.90;;;;;;5007847;28;20029;-85
2023/12/01 12:36:07;;;;;;;14.43;8.65;;;-1.10;99.90;;;;;;5009987;28;20064;-86
2023/12/01 12:38:33;;;;;;;12.50;8.38;;;-1.00;99.90;;;;;;5006081;28;20137;-85
2023/12/01 12:41:00;;;;;;;13.57;8.57;;;-1.00;99.90;;;;;;5008627;28;20033;-85